sensor_id;sensor_type;location;lat;lon;timestamp;temperature;humidity
31129;DHT22;17777;48.770;8.944;2022-08-01T00:00:34;27.20;33.60
31129;DHT22;17777;48.770;8.944;2022-08-01T00:03:00;27.10;33.60
31129;DHT22;17777;48.770;8.944;2022-08-01T00:05:26;27.00;33.80
31129;DHT22;17777;48.770;8.944;2022-08-01T00:07:53;26.90;33.90
31129;DHT22;17777;48.770;8.944;2022-08-01T00:10:19;26.80;34.10
31129;DHT22;17777;48.770;8.944;2022-08-01T00:12:46;26.80;34.30
31129;DHT22;17777;48.770;8.944;2022-08-01T00:15:13;26.70;34.30
31129;DHT22;17777;48.770;8.944;2022-08-01T00:17:40;26.60;34.60
31129;DHT22;17777;48.770;8.944;2022-08-01T00:20:08;26.60;34.70
31129;DHT22;17777;48.770;8.944;2022-08-01T00:22:35;26.50;34.90
31129;DHT22;17777;48.770;8.944;2022-08-01T00:25:03;26.40;35.00
31129;DHT22;17777;48.770;8.944;2022-08-01T00:27:29;26.40;35.10
31129;DHT22;17777;48.770;8.944;2022-08-01T00:29:55;26.30;35.00
31129;DHT22;17777;48.770;8.944;2022-08-01T00:32:21;26.30;35.30
31129;DHT22;17777;48.770;8.944;2022-08-01T00:34:46;26.20;35.50
31129;DHT22;17777;48.770;8.944;2022-08-01T00:37:12;26.10;35.50
31129;DHT22;17777;48.770;8.944;2022-08-01T00:39:38;26.00;35.60
31129;DHT22;17777;48.770;8.944;2022-08-01T00:42:08;26.00;35.80
31129;DHT22;17777;48.770;8.944;2022-08-01T00:44:36;25.90;36.30
31129;DHT22;17777;48.770;8.944;2022-08-01T00:47:02;25.90;35.60
31129;DHT22;17777;48.770;8.944;2022-08-01T00:49:28;25.90;35.70
31129;DHT22;17777;48.770;8.944;2022-08-01T00:51:55;25.90;35.80
31129;DHT22;17777;48.770;8.944;2022-08-01T00:54:21;25.80;35.70
31129;DHT22;17777;48.770;8.944;2022-08-01T00:56:48;25.80;35.80
31129;DHT22;17777;48.770;8.944;2022-08-01T00:59:14;25.80;35.70
31129;DHT22;17777;48.770;8.944;2022-08-01T01:01:42;25.80;35.70
31129;DHT22;17777;48.770;8.944;2022-08-01T01:04:08;25.80;35.90
31129;DHT22;17777;48.770;8.944;2022-08-01T01:06:44;25.80;36.10
31129;DHT22;17777;48.770;8.944;2022-08-01T01:12:35;25.80;36.30
31129;DHT22;17777;48.770;8.944;2022-08-01T01:18:30;25.90;37.30
31129;DHT22;17777;48.770;8.944;2022-08-01T01:23:50;25.90;37.40
31129;DHT22;17777;48.770;8.944;2022-08-01T01:26:52;25.90;37.00
31129;DHT22;17777;48.770;8.944;2022-08-01T01:29:35;26.00;36.40
31129;DHT22;17777;48.770;8.944;2022-08-01T01:32:13;26.00;36.30
31129;DHT22;17777;48.770;8.944;2022-08-01T01:34:43;26.00;36.90
31129;DHT22;17777;48.770;8.944;2022-08-01T01:37:14;26.00;36.70
31129;DHT22;17777;48.770;8.944;2022-08-01T01:39:43;25.90;36.90
31129;DHT22;17777;48.770;8.944;2022-08-01T01:42:10;26.00;36.90
31129;DHT22;17777;48.770;8.944;2022-08-01T01:44:37;25.90;36.90
31129;DHT22;17777;48.770;8.944;2022-08-01T01:47:04;25.90;36.90
31129;DHT22;17777;48.770;8.944;2022-08-01T01:49:32;25.90;37.00
31129;DHT22;17777;48.770;8.944;2022-08-01T01:51:59;25.90;37.00
31129;DHT22;17777;48.770;8.944;2022-08-01T01:54:33;25.90;37.70
31129;DHT22;17777;48.770;8.944;2022-08-01T01:57:02;25.90;37.40
31129;DHT22;17777;48.770;8.944;2022-08-01T01:59:31;25.90;37.00
31129;DHT22;17777;48.770;8.944;2022-08-01T02:02:01;25.80;37.10
31129;DHT22;17777;48.770;8.944;2022-08-01T02:04:30;25.80;37.20
31129;DHT22;17777;48.770;8.944;2022-08-01T02:06:59;25.70;37.30
31129;DHT22;17777;48.770;8.944;2022-08-01T02:09:27;25.70;37.20
31129;DHT22;17777;48.770;8.944;2022-08-01T02:11:54;25.70;37.40
31129;DHT22;17777;48.770;8.944;2022-08-01T02:14:22;25.60;37.40
31129;DHT22;17777;48.770;8.944;2022-08-01T02:16:50;25.60;37.50
31129;DHT22;17777;48.770;8.944;2022-08-01T02:19:17;25.50;37.50
31129;DHT22;17777;48.770;8.944;2022-08-01T02:22:00;25.50;37.70
31129;DHT22;17777;48.770;8.944;2022-08-01T02:24:40;25.40;38.40
31129;DHT22;17777;48.770;8.944;2022-08-01T02:27:58;25.40;39.00
31129;DHT22;17777;48.770;8.944;2022-08-01T02:30:26;25.30;38.70
31129;DHT22;17777;48.770;8.944;2022-08-01T02:33:05;25.30;38.10
31129;DHT22;17777;48.770;8.944;2022-08-01T02:35:35;25.20;39.30
31129;DHT22;17777;48.770;8.944;2022-08-01T02:38:06;25.20;38.30
31129;DHT22;17777;48.770;8.944;2022-08-01T02:40:37;25.10;38.40
31129;DHT22;17777;48.770;8.944;2022-08-01T02:43:05;25.10;38.60
31129;DHT22;17777;48.770;8.944;2022-08-01T02:45:33;25.00;38.50
31129;DHT22;17777;48.770;8.944;2022-08-01T02:48:06;25.00;38.60
31129;DHT22;17777;48.770;8.944;2022-08-01T02:50:36;24.90;38.90
31129;DHT22;17777;48.770;8.944;2022-08-01T02:53:03;25.00;38.90
31129;DHT22;17777;48.770;8.944;2022-08-01T02:55:31;24.90;39.10
31129;DHT22;17777;48.770;8.944;2022-08-01T02:58:00;24.90;39.20
31129;DHT22;17777;48.770;8.944;2022-08-01T03:00:27;24.80;39.00
31129;DHT22;17777;48.770;8.944;2022-08-01T03:02:55;24.80;39.20
31129;DHT22;17777;48.770;8.944;2022-08-01T03:05:24;24.80;39.20
31129;DHT22;17777;48.770;8.944;2022-08-01T03:07:52;24.70;39.30
31129;DHT22;17777;48.770;8.944;2022-08-01T03:10:20;24.70;39.20
31129;DHT22;17777;48.770;8.944;2022-08-01T03:12:46;24.60;39.20
31129;DHT22;17777;48.770;8.944;2022-08-01T03:15:15;24.60;39.40
31129;DHT22;17777;48.770;8.944;2022-08-01T03:17:43;24.50;39.40
31129;DHT22;17777;48.770;8.944;2022-08-01T03:20:12;24.50;39.40
31129;DHT22;17777;48.770;8.944;2022-08-01T03:22:40;24.40;39.60
31129;DHT22;17777;48.770;8.944;2022-08-01T03:25:08;24.40;39.70
31129;DHT22;17777;48.770;8.944;2022-08-01T03:27:36;24.30;39.70
31129;DHT22;17777;48.770;8.944;2022-08-01T03:30:04;24.30;40.30
31129;DHT22;17777;48.770;8.944;2022-08-01T03:32:31;24.30;40.30
31129;DHT22;17777;48.770;8.944;2022-08-01T03:34:57;24.20;40.20
31129;DHT22;17777;48.770;8.944;2022-08-01T03:37:33;24.20;40.40
31129;DHT22;17777;48.770;8.944;2022-08-01T03:40:09;24.10;41.20
31129;DHT22;17777;48.770;8.944;2022-08-01T03:42:58;24.10;41.40
31129;DHT22;17777;48.770;8.944;2022-08-01T03:45:39;24.10;41.40
31129;DHT22;17777;48.770;8.944;2022-08-01T03:48:10;24.00;41.40
31129;DHT22;17777;48.770;8.944;2022-08-01T03:50:42;24.00;41.30
31129;DHT22;17777;48.770;8.944;2022-08-01T03:53:11;23.90;41.20
31129;DHT22;17777;48.770;8.944;2022-08-01T03:55:41;23.90;41.00
31129;DHT22;17777;48.770;8.944;2022-08-01T03:58:09;23.90;41.20
31129;DHT22;17777;48.770;8.944;2022-08-01T04:00:36;23.90;41.30
31129;DHT22;17777;48.770;8.944;2022-08-01T04:03:10;23.80;41.50
31129;DHT22;17777;48.770;8.944;2022-08-01T04:05:38;23.80;42.00
31129;DHT22;17777;48.770;8.944;2022-08-01T04:08:06;23.70;41.60
31129;DHT22;17777;48.770;8.944;2022-08-01T04:10:32;23.70;41.60
31129;DHT22;17777;48.770;8.944;2022-08-01T04:12:58;23.70;41.60
31129;DHT22;17777;48.770;8.944;2022-08-01T04:15:23;23.70;41.70
31129;DHT22;17777;48.770;8.944;2022-08-01T04:17:49;23.70;41.80
31129;DHT22;17777;48.770;8.944;2022-08-01T04:20:15;23.60;41.90
31129;DHT22;17777;48.770;8.944;2022-08-01T04:22:41;23.70;42.00
31129;DHT22;17777;48.770;8.944;2022-08-01T04:25:12;23.60;42.10
31129;DHT22;17777;48.770;8.944;2022-08-01T04:27:46;23.60;42.60
31129;DHT22;17777;48.770;8.944;2022-08-01T04:30:14;23.50;42.50
31129;DHT22;17777;48.770;8.944;2022-08-01T04:32:43;23.50;42.40
31129;DHT22;17777;48.770;8.944;2022-08-01T04:35:13;23.50;42.50
31129;DHT22;17777;48.770;8.944;2022-08-01T04:37:44;23.50;42.50
31129;DHT22;17777;48.770;8.944;2022-08-01T04:40:11;23.50;42.50
31129;DHT22;17777;48.770;8.944;2022-08-01T04:42:37;23.50;42.50
31129;DHT22;17777;48.770;8.944;2022-08-01T04:45:04;23.50;42.30
31129;DHT22;17777;48.770;8.944;2022-08-01T04:47:30;23.50;42.80
31129;DHT22;17777;48.770;8.944;2022-08-01T04:49:57;23.40;42.90
31129;DHT22;17777;48.770;8.944;2022-08-01T04:52:23;23.50;43.00
31129;DHT22;17777;48.770;8.944;2022-08-01T04:54:48;23.40;43.10
31129;DHT22;17777;48.770;8.944;2022-08-01T04:57:14;23.40;43.30
31129;DHT22;17777;48.770;8.944;2022-08-01T04:59:43;23.40;43.30
31129;DHT22;17777;48.770;8.944;2022-08-01T05:02:16;23.30;43.60
31129;DHT22;17777;48.770;8.944;2022-08-01T05:04:44;23.40;43.60
31129;DHT22;17777;48.770;8.944;2022-08-01T05:07:11;23.30;43.60
31129;DHT22;17777;48.770;8.944;2022-08-01T05:09:39;23.40;43.70
31129;DHT22;17777;48.770;8.944;2022-08-01T05:12:11;23.40;44.00
31129;DHT22;17777;48.770;8.944;2022-08-01T05:14:37;23.30;44.00
31129;DHT22;17777;48.770;8.944;2022-08-01T05:17:04;23.40;44.20
31129;DHT22;17777;48.770;8.944;2022-08-01T05:19:33;23.40;44.20
31129;DHT22;17777;48.770;8.944;2022-08-01T05:22:02;23.40;44.30
31129;DHT22;17777;48.770;8.944;2022-08-01T05:24:33;23.40;44.10
31129;DHT22;17777;48.770;8.944;2022-08-01T05:26:59;23.50;44.20
31129;DHT22;17777;48.770;8.944;2022-08-01T05:29:26;23.50;44.30
31129;DHT22;17777;48.770;8.944;2022-08-01T05:31:52;23.50;44.20
31129;DHT22;17777;48.770;8.944;2022-08-01T05:34:19;23.60;44.30
31129;DHT22;17777;48.770;8.944;2022-08-01T05:36:46;23.60;44.50
31129;DHT22;17777;48.770;8.944;2022-08-01T05:39:12;23.70;44.50
31129;DHT22;17777;48.770;8.944;2022-08-01T05:41:39;23.70;44.50
31129;DHT22;17777;48.770;8.944;2022-08-01T05:44:05;23.80;44.50
31129;DHT22;17777;48.770;8.944;2022-08-01T05:46:32;23.80;44.50
31129;DHT22;17777;48.770;8.944;2022-08-01T05:48:59;23.90;44.50
31129;DHT22;17777;48.770;8.944;2022-08-01T05:51:26;23.90;44.40
31129;DHT22;17777;48.770;8.944;2022-08-01T05:53:52;24.00;44.50
31129;DHT22;17777;48.770;8.944;2022-08-01T05:56:18;24.00;44.50
31129;DHT22;17777;48.770;8.944;2022-08-01T05:58:44;24.10;44.40
31129;DHT22;17777;48.770;8.944;2022-08-01T06:01:11;24.10;44.40
31129;DHT22;17777;48.770;8.944;2022-08-01T06:03:37;24.20;44.60
31129;DHT22;17777;48.770;8.944;2022-08-01T06:06:03;24.20;44.40
31129;DHT22;17777;48.770;8.944;2022-08-01T06:08:29;24.30;44.60
31129;DHT22;17777;48.770;8.944;2022-08-01T06:10:55;24.40;44.40
31129;DHT22;17777;48.770;8.944;2022-08-01T06:13:21;24.40;44.50
31129;DHT22;17777;48.770;8.944;2022-08-01T06:15:48;24.50;44.60
31129;DHT22;17777;48.770;8.944;2022-08-01T06:18:14;24.60;44.60
31129;DHT22;17777;48.770;8.944;2022-08-01T06:20:41;24.70;44.60
31129;DHT22;17777;48.770;8.944;2022-08-01T06:23:07;24.80;44.60
31129;DHT22;17777;48.770;8.944;2022-08-01T06:25:33;24.80;44.50
31129;DHT22;17777;48.770;8.944;2022-08-01T06:27:59;24.90;44.50
31129;DHT22;17777;48.770;8.944;2022-08-01T06:30:25;25.00;44.70
31129;DHT22;17777;48.770;8.944;2022-08-01T06:32:51;25.00;44.80
31129;DHT22;17777;48.770;8.944;2022-08-01T06:35:18;25.10;44.90
31129;DHT22;17777;48.770;8.944;2022-08-01T06:37:44;25.20;45.60
31129;DHT22;17777;48.770;8.944;2022-08-01T06:40:12;25.30;44.80
31129;DHT22;17777;48.770;8.944;2022-08-01T06:42:39;25.40;44.90
31129;DHT22;17777;48.770;8.944;2022-08-01T06:45:06;25.50;44.80
31129;DHT22;17777;48.770;8.944;2022-08-01T06:47:33;25.60;44.80
31129;DHT22;17777;48.770;8.944;2022-08-01T06:49:59;25.70;44.80
31129;DHT22;17777;48.770;8.944;2022-08-01T06:52:25;25.80;44.70
31129;DHT22;17777;48.770;8.944;2022-08-01T06:54:51;25.90;44.60
31129;DHT22;17777;48.770;8.944;2022-08-01T06:57:17;26.00;45.20
31129;DHT22;17777;48.770;8.944;2022-08-01T06:59:43;26.10;44.60
31129;DHT22;17777;48.770;8.944;2022-08-01T07:02:09;26.20;44.60
31129;DHT22;17777;48.770;8.944;2022-08-01T07:04:35;26.20;44.60
31129;DHT22;17777;48.770;8.944;2022-08-01T07:07:01;26.30;44.80
31129;DHT22;17777;48.770;8.944;2022-08-01T07:09:27;26.40;44.40
31129;DHT22;17777;48.770;8.944;2022-08-01T07:11:54;26.50;44.40
31129;DHT22;17777;48.770;8.944;2022-08-01T07:14:21;26.50;44.20
31129;DHT22;17777;48.770;8.944;2022-08-01T07:16:48;26.60;44.20
31129;DHT22;17777;48.770;8.944;2022-08-01T07:19:14;26.70;44.30
31129;DHT22;17777;48.770;8.944;2022-08-01T07:21:40;26.70;44.60
31129;DHT22;17777;48.770;8.944;2022-08-01T07:24:08;26.80;44.30
31129;DHT22;17777;48.770;8.944;2022-08-01T07:26:35;26.90;44.40
31129;DHT22;17777;48.770;8.944;2022-08-01T07:29:01;27.00;44.40
31129;DHT22;17777;48.770;8.944;2022-08-01T07:31:26;27.00;44.10
31129;DHT22;17777;48.770;8.944;2022-08-01T07:33:52;27.10;43.90
31129;DHT22;17777;48.770;8.944;2022-08-01T07:36:18;27.10;44.00
31129;DHT22;17777;48.770;8.944;2022-08-01T07:38:45;27.20;43.80
31129;DHT22;17777;48.770;8.944;2022-08-01T07:41:11;27.30;43.90
31129;DHT22;17777;48.770;8.944;2022-08-01T07:43:37;27.30;44.00
31129;DHT22;17777;48.770;8.944;2022-08-01T07:46:04;27.30;44.10
31129;DHT22;17777;48.770;8.944;2022-08-01T07:48:30;27.40;44.30
31129;DHT22;17777;48.770;8.944;2022-08-01T07:50:57;27.40;44.20
31129;DHT22;17777;48.770;8.944;2022-08-01T07:53:22;27.50;44.10
31129;DHT22;17777;48.770;8.944;2022-08-01T07:55:48;27.60;44.10
31129;DHT22;17777;48.770;8.944;2022-08-01T07:58:15;27.70;43.80
31129;DHT22;17777;48.770;8.944;2022-08-01T08:00:41;27.80;43.80
31129;DHT22;17777;48.770;8.944;2022-08-01T08:03:07;27.80;43.90
31129;DHT22;17777;48.770;8.944;2022-08-01T08:05:34;27.90;43.70
31129;DHT22;17777;48.770;8.944;2022-08-01T08:08:05;27.90;43.40
31129;DHT22;17777;48.770;8.944;2022-08-01T08:10:32;28.00;43.70
31129;DHT22;17777;48.770;8.944;2022-08-01T08:12:58;28.00;43.20
31129;DHT22;17777;48.770;8.944;2022-08-01T08:15:24;28.10;43.00
31129;DHT22;17777;48.770;8.944;2022-08-01T08:17:49;28.20;42.90
31129;DHT22;17777;48.770;8.944;2022-08-01T08:20:15;28.20;43.00
31129;DHT22;17777;48.770;8.944;2022-08-01T08:22:41;28.20;42.90
31129;DHT22;17777;48.770;8.944;2022-08-01T08:25:08;28.30;43.20
31129;DHT22;17777;48.770;8.944;2022-08-01T08:27:35;28.30;43.10
31129;DHT22;17777;48.770;8.944;2022-08-01T08:30:02;28.40;43.00
31129;DHT22;17777;48.770;8.944;2022-08-01T08:32:32;28.40;42.90
31129;DHT22;17777;48.770;8.944;2022-08-01T08:34:59;28.50;43.00
31129;DHT22;17777;48.770;8.944;2022-08-01T08:37:25;28.50;42.80
31129;DHT22;17777;48.770;8.944;2022-08-01T08:39:51;28.60;42.80
31129;DHT22;17777;48.770;8.944;2022-08-01T08:42:18;28.60;42.60
31129;DHT22;17777;48.770;8.944;2022-08-01T08:44:44;28.70;42.50
31129;DHT22;17777;48.770;8.944;2022-08-01T08:47:11;28.70;42.50
31129;DHT22;17777;48.770;8.944;2022-08-01T08:49:38;28.70;42.60
31129;DHT22;17777;48.770;8.944;2022-08-01T08:52:05;28.80;42.70
31129;DHT22;17777;48.770;8.944;2022-08-01T08:54:32;28.90;42.70
31129;DHT22;17777;48.770;8.944;2022-08-01T08:56:59;28.90;42.40
31129;DHT22;17777;48.770;8.944;2022-08-01T08:59:26;28.90;42.60
31129;DHT22;17777;48.770;8.944;2022-08-01T09:01:53;29.00;42.20
31129;DHT22;17777;48.770;8.944;2022-08-01T09:04:21;29.00;42.20
31129;DHT22;17777;48.770;8.944;2022-08-01T09:06:50;29.10;42.10
31129;DHT22;17777;48.770;8.944;2022-08-01T09:09:16;29.20;42.10
31129;DHT22;17777;48.770;8.944;2022-08-01T09:11:42;29.20;42.00
31129;DHT22;17777;48.770;8.944;2022-08-01T09:14:18;29.30;41.90
31129;DHT22;17777;48.770;8.944;2022-08-01T09:17:06;29.30;41.80
31129;DHT22;17777;48.770;8.944;2022-08-01T09:19:36;29.40;41.70
31129;DHT22;17777;48.770;8.944;2022-08-01T09:22:07;29.40;41.70
31129;DHT22;17777;48.770;8.944;2022-08-01T09:25:09;29.50;41.80
31129;DHT22;17777;48.770;8.944;2022-08-01T09:27:37;29.50;41.50
31129;DHT22;17777;48.770;8.944;2022-08-01T09:30:12;29.60;41.70
31129;DHT22;17777;48.770;8.944;2022-08-01T09:33:03;29.60;41.50
31129;DHT22;17777;48.770;8.944;2022-08-01T09:35:32;29.70;41.00
31129;DHT22;17777;48.770;8.944;2022-08-01T09:38:15;29.70;41.10
31129;DHT22;17777;48.770;8.944;2022-08-01T09:40:56;29.80;41.30
31129;DHT22;17777;48.770;8.944;2022-08-01T09:43:25;29.90;41.20
31129;DHT22;17777;48.770;8.944;2022-08-01T09:45:52;29.90;40.90
31129;DHT22;17777;48.770;8.944;2022-08-01T09:48:20;30.00;40.70
31129;DHT22;17777;48.770;8.944;2022-08-01T09:50:47;30.00;40.40
31129;DHT22;17777;48.770;8.944;2022-08-01T09:53:17;30.00;40.50
31129;DHT22;17777;48.770;8.944;2022-08-01T09:56:10;30.10;40.40
31129;DHT22;17777;48.770;8.944;2022-08-01T09:58:59;30.10;40.30
31129;DHT22;17777;48.770;8.944;2022-08-01T10:01:25;30.20;40.00
31129;DHT22;17777;48.770;8.944;2022-08-01T10:04:18;30.20;40.10
31129;DHT22;17777;48.770;8.944;2022-08-01T10:06:50;30.20;40.10
31129;DHT22;17777;48.770;8.944;2022-08-01T10:09:30;30.30;40.60
31129;DHT22;17777;48.770;8.944;2022-08-01T10:11:59;30.40;40.50
31129;DHT22;17777;48.770;8.944;2022-08-01T10:14:26;30.50;40.50
31129;DHT22;17777;48.770;8.944;2022-08-01T10:16:59;30.50;40.20
31129;DHT22;17777;48.770;8.944;2022-08-01T10:19:27;30.60;40.00
31129;DHT22;17777;48.770;8.944;2022-08-01T10:21:55;30.60;39.80
31129;DHT22;17777;48.770;8.944;2022-08-01T10:24:22;30.70;39.90
31129;DHT22;17777;48.770;8.944;2022-08-01T10:26:52;30.70;39.70
31129;DHT22;17777;48.770;8.944;2022-08-01T10:29:25;30.80;39.50
31129;DHT22;17777;48.770;8.944;2022-08-01T10:31:51;30.80;39.60
31129;DHT22;17777;48.770;8.944;2022-08-01T10:34:17;30.90;39.60
31129;DHT22;17777;48.770;8.944;2022-08-01T10:36:46;30.90;39.60
31129;DHT22;17777;48.770;8.944;2022-08-01T10:39:12;31.00;39.80
31129;DHT22;17777;48.770;8.944;2022-08-01T10:41:39;31.10;39.50
31129;DHT22;17777;48.770;8.944;2022-08-01T10:44:07;31.10;38.80
31129;DHT22;17777;48.770;8.944;2022-08-01T10:46:52;31.20;39.00
31129;DHT22;17777;48.770;8.944;2022-08-01T10:49:22;31.20;37.40
31129;DHT22;17777;48.770;8.944;2022-08-01T10:51:52;31.40;38.80
31129;DHT22;17777;48.770;8.944;2022-08-01T10:54:17;31.40;38.90
31129;DHT22;17777;48.770;8.944;2022-08-01T10:56:50;31.50;38.40
31129;DHT22;17777;48.770;8.944;2022-08-01T10:59:22;31.50;37.80
31129;DHT22;17777;48.770;8.944;2022-08-01T11:02:25;31.60;38.00
31129;DHT22;17777;48.770;8.944;2022-08-01T11:05:03;31.60;36.80
31129;DHT22;17777;48.770;8.944;2022-08-01T11:07:42;31.70;37.90
31129;DHT22;17777;48.770;8.944;2022-08-01T11:10:37;31.70;37.50
31129;DHT22;17777;48.770;8.944;2022-08-01T11:13:05;31.70;37.10
31129;DHT22;17777;48.770;8.944;2022-08-01T11:15:37;31.70;37.80
31129;DHT22;17777;48.770;8.944;2022-08-01T11:21:02;31.70;37.00
31129;DHT22;17777;48.770;8.944;2022-08-01T11:23:29;31.70;36.70
31129;DHT22;17777;48.770;8.944;2022-08-01T11:28:28;31.70;36.20
31129;DHT22;17777;48.770;8.944;2022-08-01T11:39:10;31.70;36.80
31129;DHT22;17777;48.770;8.944;2022-08-01T11:41:38;31.70;35.90
31129;DHT22;17777;48.770;8.944;2022-08-01T11:44:05;31.70;36.90
31129;DHT22;17777;48.770;8.944;2022-08-01T11:54:33;31.90;36.40
31129;DHT22;17777;48.770;8.944;2022-08-01T11:57:17;31.90;36.10
31129;DHT22;17777;48.770;8.944;2022-08-01T12:02:23;32.00;35.50
31129;DHT22;17777;48.770;8.944;2022-08-01T12:04:54;32.00;35.50
31129;DHT22;17777;48.770;8.944;2022-08-01T12:07:23;32.00;35.60
31129;DHT22;17777;48.770;8.944;2022-08-01T12:10:13;32.00;35.60
31129;DHT22;17777;48.770;8.944;2022-08-01T12:12:51;31.90;35.40
31129;DHT22;17777;48.770;8.944;2022-08-01T12:15:20;31.90;36.20
31129;DHT22;17777;48.770;8.944;2022-08-01T12:17:56;31.90;36.30
31129;DHT22;17777;48.770;8.944;2022-08-01T12:20:34;31.90;36.40
31129;DHT22;17777;48.770;8.944;2022-08-01T12:23:08;32.00;35.90
31129;DHT22;17777;48.770;8.944;2022-08-01T12:25:36;31.90;35.30
31129;DHT22;17777;48.770;8.944;2022-08-01T12:28:04;32.00;35.90
31129;DHT22;17777;48.770;8.944;2022-08-01T12:30:31;32.00;35.70
31129;DHT22;17777;48.770;8.944;2022-08-01T12:33:01;32.00;35.70
31129;DHT22;17777;48.770;8.944;2022-08-01T12:35:29;32.10;36.40
31129;DHT22;17777;48.770;8.944;2022-08-01T12:40:29;32.10;35.80
31129;DHT22;17777;48.770;8.944;2022-08-01T12:43:01;32.20;35.40
31129;DHT22;17777;48.770;8.944;2022-08-01T12:48:00;32.30;35.80
31129;DHT22;17777;48.770;8.944;2022-08-01T12:50:30;32.30;35.60
31129;DHT22;17777;48.770;8.944;2022-08-01T12:52:57;32.30;35.60
31129;DHT22;17777;48.770;8.944;2022-08-01T12:55:27;32.40;35.60
31129;DHT22;17777;48.770;8.944;2022-08-01T12:58:06;32.40;35.10
31129;DHT22;17777;48.770;8.944;2022-08-01T13:00:34;32.40;35.50
31129;DHT22;17777;48.770;8.944;2022-08-01T13:03:08;32.40;35.50
31129;DHT22;17777;48.770;8.944;2022-08-01T13:08:16;32.50;35.00
31129;DHT22;17777;48.770;8.944;2022-08-01T13:10:43;32.60;34.60
31129;DHT22;17777;48.770;8.944;2022-08-01T13:13:10;32.50;34.80
31129;DHT22;17777;48.770;8.944;2022-08-01T13:15:38;32.60;34.80
31129;DHT22;17777;48.770;8.944;2022-08-01T13:18:26;32.60;34.90
31129;DHT22;17777;48.770;8.944;2022-08-01T13:21:11;32.60;34.50
31129;DHT22;17777;48.770;8.944;2022-08-01T13:29:09;32.60;34.80
31129;DHT22;17777;48.770;8.944;2022-08-01T13:31:36;32.70;34.90
31129;DHT22;17777;48.770;8.944;2022-08-01T13:34:03;32.70;34.90
31129;DHT22;17777;48.770;8.944;2022-08-01T13:36:29;32.70;34.80
31129;DHT22;17777;48.770;8.944;2022-08-01T13:39:00;32.70;34.70
31129;DHT22;17777;48.770;8.944;2022-08-01T13:41:46;32.70;34.40
31129;DHT22;17777;48.770;8.944;2022-08-01T13:44:13;32.60;34.20
31129;DHT22;17777;48.770;8.944;2022-08-01T13:46:40;32.60;34.00
31129;DHT22;17777;48.770;8.944;2022-08-01T13:49:07;32.60;33.90
31129;DHT22;17777;48.770;8.944;2022-08-01T13:51:35;32.60;34.20
31129;DHT22;17777;48.770;8.944;2022-08-01T13:54:01;32.60;34.40
31129;DHT22;17777;48.770;8.944;2022-08-01T13:56:28;32.70;34.60
31129;DHT22;17777;48.770;8.944;2022-08-01T13:58:54;32.70;34.70
31129;DHT22;17777;48.770;8.944;2022-08-01T14:01:21;32.80;34.70
31129;DHT22;17777;48.770;8.944;2022-08-01T14:03:47;32.90;34.80
31129;DHT22;17777;48.770;8.944;2022-08-01T14:06:13;32.90;34.80
31129;DHT22;17777;48.770;8.944;2022-08-01T14:08:41;32.80;34.40
31129;DHT22;17777;48.770;8.944;2022-08-01T14:11:08;32.90;34.50
31129;DHT22;17777;48.770;8.944;2022-08-01T14:13:34;32.90;34.10
31129;DHT22;17777;48.770;8.944;2022-08-01T14:16:02;32.90;34.20
31129;DHT22;17777;48.770;8.944;2022-08-01T14:18:28;32.90;34.10
31129;DHT22;17777;48.770;8.944;2022-08-01T14:20:54;32.90;34.10
31129;DHT22;17777;48.770;8.944;2022-08-01T14:23:19;33.00;34.00
31129;DHT22;17777;48.770;8.944;2022-08-01T14:25:45;33.00;34.00
31129;DHT22;17777;48.770;8.944;2022-08-01T14:28:11;33.00;34.10
31129;DHT22;17777;48.770;8.944;2022-08-01T14:30:37;33.00;34.10
31129;DHT22;17777;48.770;8.944;2022-08-01T14:33:03;33.00;33.80
31129;DHT22;17777;48.770;8.944;2022-08-01T14:35:28;33.00;33.70
31129;DHT22;17777;48.770;8.944;2022-08-01T14:37:54;33.00;33.70
31129;DHT22;17777;48.770;8.944;2022-08-01T14:40:20;33.00;34.00
31129;DHT22;17777;48.770;8.944;2022-08-01T14:42:46;33.00;33.70
31129;DHT22;17777;48.770;8.944;2022-08-01T14:45:13;33.00;33.60
31129;DHT22;17777;48.770;8.944;2022-08-01T14:47:40;33.00;33.60
31129;DHT22;17777;48.770;8.944;2022-08-01T14:50:10;33.00;33.30
31129;DHT22;17777;48.770;8.944;2022-08-01T14:52:38;33.00;33.50
31129;DHT22;17777;48.770;8.944;2022-08-01T14:55:07;33.00;33.60
31129;DHT22;17777;48.770;8.944;2022-08-01T14:57:35;33.00;33.50
31129;DHT22;17777;48.770;8.944;2022-08-01T15:00:02;33.00;33.30
31129;DHT22;17777;48.770;8.944;2022-08-01T15:02:29;33.00;33.50
31129;DHT22;17777;48.770;8.944;2022-08-01T15:04:55;33.00;33.30
31129;DHT22;17777;48.770;8.944;2022-08-01T15:07:21;33.00;33.20
31129;DHT22;17777;48.770;8.944;2022-08-01T15:09:47;33.00;33.30
31129;DHT22;17777;48.770;8.944;2022-08-01T15:12:13;33.00;33.20
31129;DHT22;17777;48.770;8.944;2022-08-01T15:14:39;33.00;33.00
31129;DHT22;17777;48.770;8.944;2022-08-01T15:19:53;32.90;32.70
31129;DHT22;17777;48.770;8.944;2022-08-01T15:22:23;32.90;33.10
31129;DHT22;17777;48.770;8.944;2022-08-01T15:24:50;32.80;32.90
31129;DHT22;17777;48.770;8.944;2022-08-01T15:27:17;32.90;33.00
31129;DHT22;17777;48.770;8.944;2022-08-01T15:29:43;32.80;32.80
31129;DHT22;17777;48.770;8.944;2022-08-01T15:32:09;32.70;32.80
31129;DHT22;17777;48.770;8.944;2022-08-01T15:34:36;32.70;32.80
31129;DHT22;17777;48.770;8.944;2022-08-01T15:37:03;32.60;32.80
31129;DHT22;17777;48.770;8.944;2022-08-01T15:39:30;32.60;32.90
31129;DHT22;17777;48.770;8.944;2022-08-01T15:42:03;32.60;32.90
31129;DHT22;17777;48.770;8.944;2022-08-01T15:44:31;32.50;33.00
31129;DHT22;17777;48.770;8.944;2022-08-01T15:46:59;32.50;33.00
31129;DHT22;17777;48.770;8.944;2022-08-01T15:49:26;32.50;33.00
31129;DHT22;17777;48.770;8.944;2022-08-01T15:51:52;32.40;32.90
31129;DHT22;17777;48.770;8.944;2022-08-01T15:54:18;32.40;33.10
31129;DHT22;17777;48.770;8.944;2022-08-01T15:56:44;32.40;32.90
31129;DHT22;17777;48.770;8.944;2022-08-01T15:59:10;32.40;33.10
31129;DHT22;17777;48.770;8.944;2022-08-01T16:01:36;32.30;33.10
31129;DHT22;17777;48.770;8.944;2022-08-01T16:04:04;32.30;33.10
31129;DHT22;17777;48.770;8.944;2022-08-01T16:06:30;32.30;33.20
31129;DHT22;17777;48.770;8.944;2022-08-01T16:08:56;32.20;33.30
31129;DHT22;17777;48.770;8.944;2022-08-01T16:11:22;32.20;33.40
31129;DHT22;17777;48.770;8.944;2022-08-01T16:13:51;32.20;33.40
31129;DHT22;17777;48.770;8.944;2022-08-01T16:16:17;32.20;33.40
31129;DHT22;17777;48.770;8.944;2022-08-01T16:18:43;32.20;33.40
31129;DHT22;17777;48.770;8.944;2022-08-01T16:21:09;32.10;33.40
31129;DHT22;17777;48.770;8.944;2022-08-01T16:23:39;32.10;33.50
31129;DHT22;17777;48.770;8.944;2022-08-01T16:26:06;32.00;33.60
31129;DHT22;17777;48.770;8.944;2022-08-01T16:28:33;32.00;33.50
31129;DHT22;17777;48.770;8.944;2022-08-01T16:30:58;31.90;33.50